createdAt,value
2019-06-08T00:00:53.600Z,0.00
2019-06-08T00:01:53.584Z,0.00
2019-06-08T00:02:53.552Z,0.00
2019-06-08T00:03:53.532Z,0.00
2019-06-08T00:04:53.514Z,0.00
2019-06-08T00:05:53.485Z,0.00
2019-06-08T00:06:53.459Z,0.00
2019-06-08T00:07:53.437Z,0.00
2019-06-08T00:08:53.416Z,0.00
2019-06-08T00:09:53.393Z,0.00
2019-06-08T00:10:53.456Z,0.00
2019-06-08T00:11:53.360Z,0.00
2019-06-08T00:12:53.322Z,0.00
2019-06-08T00:13:53.361Z,0.00
2019-06-08T00:14:53.270Z,0.00
2019-06-08T00:15:53.248Z,0.00
2019-06-08T00:16:53.224Z,0.00
2019-06-08T00:17:53.201Z,0.00
2019-06-08T00:18:53.182Z,0.00
2019-06-08T00:19:53.160Z,0.00
2019-06-08T00:20:53.130Z,0.00
2019-06-08T00:21:53.119Z,0.00
2019-06-08T00:22:53.082Z,0.00
2019-06-08T00:23:53.059Z,0.00
2019-06-08T00:24:53.033Z,0.00
2019-06-08T00:25:53.011Z,0.00
2019-06-08T00:26:52.987Z,0.00
2019-06-08T00:27:52.966Z,0.00
2019-06-08T00:28:52.938Z,0.00
2019-06-08T00:29:52.910Z,0.00
2019-06-08T00:30:52.895Z,0.00
2019-06-08T00:31:52.884Z,0.00
2019-06-08T00:32:52.841Z,0.00
2019-06-08T00:33:52.821Z,0.00
2019-06-08T00:34:52.803Z,0.00
2019-06-08T00:35:52.769Z,0.00
2019-06-08T00:36:52.745Z,0.00
2019-06-08T00:37:52.733Z,0.00
2019-06-08T00:38:52.699Z,0.00
2019-06-08T00:39:52.673Z,0.00
2019-06-08T00:40:52.652Z,0.00
2019-06-08T00:41:52.630Z,0.00
2019-06-08T00:42:52.603Z,0.00
2019-06-08T00:43:52.579Z,0.00
2019-06-08T00:44:52.555Z,0.00
2019-06-08T00:45:52.535Z,0.00
2019-06-08T00:46:52.511Z,0.00
2019-06-08T00:47:52.482Z,0.00
2019-06-08T00:48:52.457Z,0.00
2019-06-08T00:49:52.436Z,0.00
2019-06-08T00:50:52.409Z,0.00
2019-06-08T00:51:52.392Z,0.00
2019-06-08T00:52:52.364Z,0.00
2019-06-08T00:53:52.339Z,0.00
2019-06-08T00:54:52.315Z,0.00
2019-06-08T00:55:52.289Z,0.00
2019-06-08T00:56:52.272Z,0.00
2019-06-08T00:57:52.246Z,0.00
2019-06-08T00:58:52.219Z,0.00
2019-06-08T00:59:52.215Z,0.00
2019-06-08T01:00:52.168Z,0.00
2019-06-08T01:01:52.144Z,0.00
2019-06-08T01:02:52.123Z,0.00
2019-06-08T01:03:52.109Z,0.00
2019-06-08T01:04:52.075Z,0.00
2019-06-08T01:05:52.050Z,0.00
2019-06-08T01:06:52.029Z,0.00
2019-06-08T01:07:51.998Z,0.00
2019-06-08T01:08:51.976Z,0.00
2019-06-08T01:09:51.953Z,0.00
2019-06-08T01:10:51.923Z,0.00
2019-06-08T01:11:51.912Z,0.00
2019-06-08T01:12:51.892Z,0.00
2019-06-08T01:13:51.865Z,0.00
2019-06-08T01:14:51.834Z,0.00
2019-06-08T01:15:51.813Z,0.00
2019-06-08T01:16:51.784Z,0.00
2019-06-08T01:18:02.055Z,0.00
2019-06-08T01:18:51.740Z,0.00
2019-06-08T01:19:51.710Z,0.00
2019-06-08T01:20:51.687Z,0.00
2019-06-08T01:21:51.662Z,0.00
2019-06-08T01:22:51.640Z,0.00
2019-06-08T01:23:51.618Z,0.00
2019-06-08T01:24:51.586Z,0.00
2019-06-08T01:25:51.561Z,0.00
2019-06-08T01:26:51.540Z,0.00
2019-06-08T01:27:51.519Z,0.00
2019-06-08T01:28:51.497Z,0.00
2019-06-08T01:29:51.465Z,0.00
2019-06-08T01:30:51.455Z,0.00
2019-06-08T01:31:51.419Z,0.00
2019-06-08T01:32:51.396Z,0.00
2019-06-08T01:33:51.371Z,0.00
2019-06-08T01:34:51.349Z,0.00
2019-06-08T01:35:51.324Z,0.00
2019-06-08T01:36:51.296Z,0.00
2019-06-08T01:37:51.276Z,0.00
2019-06-08T01:38:51.253Z,0.00
2019-06-08T01:39:51.258Z,0.00
2019-06-08T01:40:51.199Z,0.00
2019-06-08T01:41:51.177Z,0.00
2019-06-08T01:42:51.152Z,0.00
2019-06-08T01:43:51.177Z,0.00
2019-06-08T01:44:51.103Z,0.00
2019-06-08T01:45:51.080Z,0.00
2019-06-08T01:46:51.056Z,0.00
2019-06-08T01:47:51.024Z,0.00
2019-06-08T01:48:51.004Z,0.00
2019-06-08T01:49:51.025Z,0.00
2019-06-08T01:50:50.984Z,0.00
2019-06-08T01:51:50.935Z,0.00
2019-06-08T01:52:50.905Z,0.00
2019-06-08T01:53:50.886Z,0.00
2019-06-08T01:54:50.856Z,0.00
2019-06-08T01:55:50.834Z,0.00
2019-06-08T01:56:50.807Z,0.00
2019-06-08T01:57:50.787Z,0.00
2019-06-08T01:58:50.762Z,0.00
2019-06-08T01:59:50.738Z,0.00
2019-06-08T02:00:50.715Z,0.00
2019-06-08T02:01:50.684Z,0.00
2019-06-08T02:02:50.667Z,0.00
2019-06-08T02:03:50.643Z,0.00
2019-06-08T02:04:50.645Z,0.00
2019-06-08T02:05:50.593Z,0.00
2019-06-08T02:06:50.566Z,0.00
2019-06-08T02:07:50.546Z,0.00
2019-06-08T02:08:50.509Z,0.00
2019-06-08T02:09:50.491Z,0.00
2019-06-08T02:10:50.466Z,0.00
2019-06-08T02:11:50.438Z,0.00
2019-06-08T02:12:50.416Z,0.00
2019-06-08T02:13:50.389Z,0.00
2019-06-08T02:14:50.362Z,0.00
2019-06-08T02:15:50.342Z,0.00
2019-06-08T02:16:50.321Z,0.00
2019-06-08T02:17:50.292Z,0.00
2019-06-08T02:18:51.194Z,0.00
2019-06-08T02:19:50.241Z,0.00
2019-06-08T02:20:50.219Z,0.00
2019-06-08T02:21:50.195Z,0.00
2019-06-08T02:22:50.167Z,0.00
2019-06-08T02:23:50.146Z,0.00
2019-06-08T02:24:50.118Z,0.00
2019-06-08T02:25:50.094Z,0.00
2019-06-08T02:26:50.070Z,0.00
2019-06-08T02:27:50.045Z,0.00
2019-06-08T02:28:50.021Z,0.00
2019-06-08T02:29:49.999Z,0.00
2019-06-08T02:30:49.978Z,0.00
2019-06-08T02:31:49.948Z,0.00
2019-06-08T02:32:49.931Z,0.00
2019-06-08T02:33:49.897Z,0.00
2019-06-08T02:34:49.876Z,0.00
2019-06-08T02:35:49.846Z,0.00
2019-06-08T02:36:49.829Z,0.00
2019-06-08T02:37:49.798Z,0.00
2019-06-08T02:38:49.780Z,0.00
2019-06-08T02:39:49.752Z,0.00
2019-06-08T02:40:49.723Z,0.00
2019-06-08T02:41:49.703Z,0.00
2019-06-08T02:42:49.674Z,0.00
2019-06-08T02:43:49.661Z,0.00
2019-06-08T02:44:49.626Z,0.00
2019-06-08T02:45:49.600Z,0.00
2019-06-08T02:46:49.575Z,0.00
2019-06-08T02:47:49.547Z,0.00
2019-06-08T02:49:03.554Z,0.00
2019-06-08T02:49:49.509Z,0.00
2019-06-08T02:50:49.478Z,0.00
2019-06-08T02:51:49.459Z,0.00
2019-06-08T02:52:49.431Z,0.00
2019-06-08T02:53:49.400Z,0.00
2019-06-08T02:54:49.383Z,0.00
2019-06-08T02:55:49.357Z,0.00
2019-06-08T02:56:49.342Z,0.00
2019-06-08T02:57:49.304Z,0.00
2019-06-08T02:58:49.282Z,0.00
2019-06-08T02:59:49.255Z,0.00
2019-06-08T03:00:49.222Z,0.00
2019-06-08T03:01:49.206Z,0.00
2019-06-08T03:02:49.183Z,0.00
2019-06-08T03:03:49.165Z,0.00
2019-06-08T03:04:49.128Z,0.00
2019-06-08T03:05:49.110Z,0.00
2019-06-08T03:06:49.079Z,0.00
2019-06-08T03:07:49.062Z,0.00
2019-06-08T03:08:49.112Z,0.00
2019-06-08T03:09:49.007Z,0.00
2019-06-08T03:10:48.984Z,0.00
2019-06-08T03:11:48.957Z,0.00
2019-06-08T03:12:48.935Z,0.00
2019-06-08T03:13:48.903Z,0.00
2019-06-08T03:14:48.889Z,0.00
2019-06-08T03:15:48.865Z,0.00
2019-06-08T03:16:48.835Z,0.00
2019-06-08T03:17:48.810Z,0.00
2019-06-08T03:18:48.782Z,0.00
2019-06-08T03:19:48.764Z,0.00
2019-06-08T03:20:48.750Z,0.00
2019-06-08T03:21:48.706Z,0.00
2019-06-08T03:22:48.686Z,0.00
2019-06-08T03:23:48.699Z,0.00
2019-06-08T03:24:48.634Z,0.00
2019-06-08T03:25:52.985Z,0.00
2019-06-08T03:26:48.641Z,0.00
2019-06-08T03:27:48.555Z,0.00
2019-06-08T03:28:48.532Z,0.00
2019-06-08T03:29:48.510Z,0.00
2019-06-08T03:30:54.031Z,0.00
2019-06-08T03:31:55.790Z,0.00
2019-06-08T03:32:55.551Z,0.00
2019-06-08T03:33:54.885Z,0.00
2019-06-08T03:34:55.837Z,0.00
2019-06-08T03:35:56.863Z,0.00
2019-06-08T03:36:56.017Z,0.00
2019-06-08T03:37:48.313Z,0.00
2019-06-08T03:38:48.285Z,0.00
2019-06-08T03:39:48.258Z,0.00
2019-06-08T03:40:48.232Z,0.00
2019-06-08T03:41:48.205Z,0.00
2019-06-08T03:42:48.984Z,0.00
2019-06-08T03:43:48.162Z,0.00
2019-06-08T03:44:48.133Z,0.00
2019-06-08T03:45:48.107Z,0.00
2019-06-08T03:46:48.090Z,0.00
2019-06-08T03:47:48.061Z,0.00
2019-06-08T03:48:48.038Z,0.00
2019-06-08T03:49:56.732Z,0.00
2019-06-08T03:50:47.977Z,0.00
2019-06-08T03:51:49.047Z,0.00
2019-06-08T03:52:47.940Z,0.00
2019-06-08T03:53:47.925Z,0.00
2019-06-08T03:54:47.885Z,0.00
2019-06-08T03:55:47.858Z,0.00
2019-06-08T03:56:47.839Z,0.00
2019-06-08T03:57:47.807Z,0.00
2019-06-08T03:58:48.289Z,0.00
2019-06-08T03:59:47.942Z,0.00
2019-06-08T04:00:49.180Z,0.00
2019-06-08T04:01:47.710Z,0.00
2019-06-08T04:02:47.682Z,0.00
2019-06-08T04:03:47.660Z,0.00
2019-06-08T04:04:47.627Z,0.00
2019-06-08T04:05:47.604Z,0.00
2019-06-08T04:06:47.589Z,0.00
2019-06-08T04:07:47.560Z,0.00
2019-06-08T04:08:47.741Z,0.00
2019-06-08T04:09:47.510Z,0.00
2019-06-08T04:10:47.479Z,0.00
2019-06-08T04:11:47.455Z,0.00
2019-06-08T04:12:47.428Z,0.00
2019-06-08T04:13:47.484Z,0.00
2019-06-08T04:14:47.384Z,0.00
2019-06-08T04:15:47.358Z,0.00
2019-06-08T04:16:47.329Z,0.00
2019-06-08T04:17:47.305Z,0.00
2019-06-08T04:18:47.285Z,0.00
2019-06-08T04:20:08.771Z,0.00
2019-06-08T04:20:48.831Z,0.00
2019-06-08T04:21:47.202Z,0.00
2019-06-08T04:22:47.456Z,0.00
2019-06-08T04:23:47.324Z,0.00
2019-06-08T04:24:47.115Z,0.00
2019-06-08T04:25:47.674Z,0.00
2019-06-08T04:26:47.309Z,0.00
2019-06-08T04:27:47.172Z,0.00
2019-06-08T04:28:49.455Z,0.00
2019-06-08T04:29:46.994Z,0.00
2019-06-08T04:30:47.837Z,0.00
2019-06-08T04:31:46.948Z,0.00
2019-06-08T04:32:47.691Z,0.00
2019-06-08T04:33:46.993Z,0.00
2019-06-08T04:34:47.998Z,0.00
2019-06-08T04:35:47.316Z,0.00
2019-06-08T04:36:48.582Z,0.00
2019-06-08T04:37:47.161Z,0.00
2019-06-08T04:38:47.934Z,0.00
2019-06-08T04:39:47.062Z,0.00
2019-06-08T04:40:48.445Z,0.00
2019-06-08T04:41:47.144Z,0.00
2019-06-08T04:42:49.390Z,0.00
2019-06-08T04:43:47.369Z,0.00
2019-06-08T04:44:47.140Z,0.00
2019-06-08T04:45:48.047Z,0.00
2019-06-08T04:46:47.804Z,0.00
2019-06-08T04:47:48.167Z,0.00
2019-06-08T04:48:47.955Z,0.00
2019-06-08T04:49:47.221Z,0.00
2019-06-08T04:50:47.993Z,0.00
2019-06-08T04:51:47.676Z,0.00
2019-06-08T04:52:47.344Z,0.00
2019-06-08T04:53:47.230Z,0.00
2019-06-08T04:54:47.541Z,0.00
2019-06-08T04:55:47.092Z,0.00
2019-06-08T04:56:47.081Z,0.00
2019-06-08T04:57:48.700Z,0.00
2019-06-08T04:58:48.313Z,0.00
2019-06-08T04:59:48.369Z,0.00
2019-06-08T05:00:48.319Z,0.00
2019-06-08T05:01:47.073Z,0.00
2019-06-08T05:02:48.614Z,0.00
2019-06-08T05:03:47.772Z,0.00
2019-06-08T05:04:47.068Z,0.00
2019-06-08T05:05:47.637Z,0.00
2019-06-08T05:06:47.215Z,0.00
2019-06-08T05:07:48.058Z,0.00
2019-06-08T05:08:47.339Z,0.00
2019-06-08T05:09:47.149Z,0.00
2019-06-08T05:10:47.424Z,0.00
2019-06-08T05:11:47.344Z,0.00
2019-06-08T05:12:47.762Z,0.00
2019-06-08T05:13:47.506Z,0.00
2019-06-08T05:14:47.151Z,0.00
2019-06-08T05:15:47.261Z,0.00
2019-06-08T05:16:47.048Z,0.00
2019-06-08T05:17:47.388Z,0.00
2019-06-08T05:18:47.244Z,0.00
2019-06-08T05:19:45.728Z,0.00
2019-06-08T05:20:47.964Z,0.00
2019-06-08T05:21:45.672Z,0.00
2019-06-08T05:22:45.750Z,0.00
2019-06-08T05:23:45.696Z,0.00
2019-06-08T05:24:45.677Z,0.00
2019-06-08T05:25:45.573Z,0.00
2019-06-08T05:26:45.547Z,0.00
2019-06-08T05:27:45.526Z,0.00
2019-06-08T05:28:45.495Z,0.00
2019-06-08T05:29:45.474Z,0.00
2019-06-08T05:30:45.446Z,0.00
2019-06-08T05:31:45.549Z,0.00
2019-06-08T05:32:45.655Z,0.00
2019-06-08T05:33:45.539Z,0.00
2019-06-08T05:34:45.475Z,0.00
2019-06-08T05:35:45.533Z,0.00
2019-06-08T05:36:45.484Z,0.00
2019-06-08T05:37:45.615Z,0.00
2019-06-08T05:38:45.681Z,0.00
2019-06-08T05:39:45.787Z,0.00
2019-06-08T05:40:45.587Z,0.00
2019-06-08T05:41:45.554Z,0.00
2019-06-08T05:42:45.723Z,0.00
2019-06-08T05:43:45.631Z,0.00
2019-06-08T05:44:45.719Z,0.00
2019-06-08T05:45:45.723Z,0.00
2019-06-08T05:46:45.749Z,0.00
2019-06-08T05:47:45.811Z,0.00
2019-06-08T05:48:45.915Z,0.00
2019-06-08T05:49:45.773Z,0.00
2019-06-08T05:50:56.829Z,0.00
2019-06-08T05:51:45.826Z,0.00
2019-06-08T05:52:45.903Z,0.00
2019-06-08T05:53:45.851Z,0.00
2019-06-08T05:54:45.809Z,0.00
2019-06-08T05:55:46.132Z,0.00
2019-06-08T05:56:45.964Z,0.00
2019-06-08T05:57:44.742Z,0.00
2019-06-08T05:58:45.981Z,0.00
2019-06-08T05:59:46.062Z,0.00
2019-06-08T06:00:44.685Z,0.00
2019-06-08T06:01:44.665Z,0.00
2019-06-08T06:02:44.824Z,0.00
2019-06-08T06:03:44.664Z,0.00
2019-06-08T06:04:44.559Z,0.00
2019-06-08T06:05:44.550Z,0.00
2019-06-08T06:06:44.639Z,0.00
2019-06-08T06:07:44.744Z,0.00
2019-06-08T06:08:44.710Z,0.00
2019-06-08T06:09:45.108Z,0.00
2019-06-08T06:10:44.840Z,0.00
2019-06-08T06:11:44.811Z,0.00
2019-06-08T06:12:45.258Z,0.00
2019-06-08T06:13:45.139Z,0.00
2019-06-08T06:14:44.984Z,0.00
2019-06-08T06:15:44.921Z,0.00
2019-06-08T06:16:44.906Z,0.00
2019-06-08T06:17:46.626Z,0.00
2019-06-08T06:18:44.989Z,0.00
2019-06-08T06:19:45.178Z,0.00
2019-06-08T06:20:45.362Z,0.00
2019-06-08T06:21:45.161Z,0.00
2019-06-08T06:22:45.726Z,0.00
2019-06-08T06:23:45.205Z,0.00
2019-06-08T06:24:44.058Z,0.00
2019-06-08T06:25:45.324Z,0.00
2019-06-08T06:26:45.220Z,0.00
2019-06-08T06:27:43.982Z,0.00
2019-06-08T06:28:43.951Z,0.00
2019-06-08T06:29:43.929Z,0.00
2019-06-08T06:30:44.257Z,0.00
2019-06-08T06:31:43.873Z,0.00
2019-06-08T06:32:43.911Z,0.00
2019-06-08T06:33:43.935Z,0.00
2019-06-08T06:34:43.947Z,0.00
2019-06-08T06:35:43.849Z,0.00
2019-06-08T06:36:43.898Z,0.00
2019-06-08T06:37:43.844Z,0.00
2019-06-08T06:38:43.838Z,0.00
2019-06-08T06:39:44.053Z,0.00
2019-06-08T06:40:43.979Z,0.00
2019-06-08T06:41:44.084Z,0.00
2019-06-08T06:42:43.884Z,0.00
2019-06-08T06:43:43.957Z,0.00
2019-06-08T06:44:45.730Z,0.00
2019-06-08T06:45:44.108Z,0.00
2019-06-08T06:46:43.956Z,0.00
2019-06-08T06:47:44.166Z,0.00
2019-06-08T06:48:44.048Z,0.00
2019-06-08T06:49:44.521Z,0.00
2019-06-08T06:50:44.338Z,0.00
2019-06-08T06:51:44.382Z,0.00
2019-06-08T06:52:44.524Z,0.00
2019-06-08T06:53:44.890Z,0.00
2019-06-08T06:54:43.274Z,0.00
2019-06-08T06:55:43.250Z,0.00
2019-06-08T06:56:43.226Z,0.00
2019-06-08T06:57:43.555Z,0.00
2019-06-08T06:58:43.171Z,0.00
2019-06-08T06:59:43.364Z,0.00
2019-06-08T07:00:43.293Z,0.00
2019-06-08T07:01:43.464Z,0.00
2019-06-08T07:02:43.584Z,0.00
2019-06-08T07:03:44.203Z,0.00
2019-06-08T07:04:43.733Z,0.00
2019-06-08T07:05:43.734Z,0.00
2019-06-08T07:06:44.047Z,0.00
2019-06-08T07:07:44.122Z,0.00
2019-06-08T07:08:44.035Z,0.00
2019-06-08T07:09:44.283Z,0.00
2019-06-08T07:10:42.855Z,0.00
2019-06-08T07:11:42.829Z,0.00
2019-06-08T07:12:42.798Z,0.00
2019-06-08T07:13:42.778Z,0.00
2019-06-08T07:14:42.752Z,0.00
2019-06-08T07:15:42.703Z,0.00
2019-06-08T07:16:42.702Z,0.00
2019-06-08T07:17:42.681Z,0.00
2019-06-08T07:18:42.650Z,0.00
2019-06-08T07:19:42.616Z,0.00
2019-06-08T07:20:42.594Z,0.00
2019-06-08T07:21:42.551Z,0.00
2019-06-08T07:22:42.537Z,0.00
2019-06-08T07:23:42.517Z,0.00
2019-06-08T07:24:42.491Z,0.00
2019-06-08T07:25:42.458Z,0.00
2019-06-08T07:26:42.442Z,0.00
2019-06-08T07:27:42.406Z,0.00
2019-06-08T07:28:42.384Z,0.00
2019-06-08T07:29:42.361Z,0.00
2019-06-08T07:30:42.327Z,0.00
2019-06-08T07:31:42.310Z,0.00
2019-06-08T07:32:42.279Z,0.00
2019-06-08T07:33:42.256Z,0.00
2019-06-08T07:34:42.227Z,0.00
2019-06-08T07:35:42.185Z,0.00
2019-06-08T07:36:42.177Z,0.00
2019-06-08T07:37:42.149Z,0.00
2019-06-08T07:38:42.129Z,0.00
2019-06-08T07:39:42.094Z,0.00
2019-06-08T07:40:42.049Z,0.00
2019-06-08T07:41:42.043Z,0.00
2019-06-08T07:42:41.999Z,0.00
2019-06-08T07:43:41.975Z,0.00
2019-06-08T07:44:41.961Z,0.00
2019-06-08T07:45:41.917Z,0.00
2019-06-08T07:46:41.923Z,0.00
2019-06-08T07:47:41.896Z,0.00
2019-06-08T07:48:41.862Z,0.00
2019-06-08T07:49:41.837Z,0.00
2019-06-08T07:50:41.808Z,0.00
2019-06-08T07:51:57.287Z,0.00
2019-06-08T07:52:41.764Z,0.00
2019-06-08T07:53:41.733Z,0.00
2019-06-08T07:54:41.692Z,0.00
2019-06-08T07:55:41.687Z,0.00
2019-06-08T07:56:41.717Z,0.00
2019-06-08T07:57:41.604Z,0.00
2019-06-08T07:58:41.598Z,0.00
2019-06-08T07:59:41.576Z,0.00
2019-06-08T08:00:41.546Z,0.00
2019-06-08T08:01:41.542Z,0.00
2019-06-08T08:02:41.474Z,0.00
2019-06-08T08:03:41.452Z,0.00
2019-06-08T08:04:41.421Z,0.00
2019-06-08T08:05:41.397Z,0.00
2019-06-08T08:06:41.396Z,0.00
2019-06-08T08:07:41.363Z,0.00
2019-06-08T08:08:41.340Z,0.00
2019-06-08T08:09:41.289Z,0.00
2019-06-08T08:10:41.291Z,0.00
2019-06-08T08:11:41.324Z,0.00
2019-06-08T08:12:41.235Z,0.00
2019-06-08T08:13:41.216Z,0.00
2019-06-08T08:14:41.184Z,0.00
2019-06-08T08:15:41.155Z,0.00
2019-06-08T08:16:41.136Z,0.00
2019-06-08T08:17:41.106Z,0.00
2019-06-08T08:18:41.076Z,0.00
2019-06-08T08:19:41.053Z,0.00
2019-06-08T08:20:41.024Z,0.00
2019-06-08T08:21:41.069Z,0.00
2019-06-08T08:22:40.977Z,0.00
2019-06-08T08:23:40.931Z,0.00
2019-06-08T08:24:40.923Z,0.00
2019-06-08T08:25:41.098Z,0.00
2019-06-08T08:26:40.871Z,0.00
2019-06-08T08:27:40.846Z,0.00
2019-06-08T08:28:40.825Z,0.00
2019-06-08T08:29:40.794Z,0.00
2019-06-08T08:30:40.765Z,0.00
2019-06-08T08:31:40.742Z,0.00
2019-06-08T08:32:40.714Z,0.00
2019-06-08T08:33:40.683Z,0.00
2019-06-08T08:34:40.660Z,0.00
2019-06-08T08:35:40.635Z,0.00
2019-06-08T08:36:40.614Z,0.00
2019-06-08T08:37:40.590Z,0.00
2019-06-08T08:38:41.091Z,0.00
2019-06-08T08:39:40.515Z,0.00
2019-06-08T08:40:40.499Z,0.00
2019-06-08T08:41:40.477Z,0.00
2019-06-08T08:42:40.453Z,0.00
2019-06-08T08:43:40.425Z,0.00
2019-06-08T08:44:40.378Z,0.00
2019-06-08T08:45:40.377Z,0.00
2019-06-08T08:46:40.330Z,0.00
2019-06-08T08:47:40.329Z,0.00
2019-06-08T08:48:40.275Z,0.00
2019-06-08T08:49:40.249Z,0.00
2019-06-08T08:50:40.246Z,0.00
2019-06-08T08:51:40.220Z,0.00
2019-06-08T08:52:41.064Z,0.00
2019-06-08T08:53:40.168Z,0.00
2019-06-08T08:54:42.744Z,0.00
2019-06-08T08:55:40.118Z,0.00
2019-06-08T08:56:40.088Z,0.00
2019-06-08T08:57:41.567Z,0.00
2019-06-08T08:58:40.016Z,0.00
2019-06-08T08:59:40.005Z,0.00
2019-06-08T09:00:41.158Z,0.00
2019-06-08T09:01:39.938Z,0.00
2019-06-08T09:02:39.925Z,0.00
2019-06-08T09:03:39.886Z,0.00
2019-06-08T09:04:39.879Z,0.00
2019-06-08T09:05:39.861Z,0.00
2019-06-08T09:06:39.811Z,0.00
2019-06-08T09:07:39.830Z,0.00
2019-06-08T09:08:39.776Z,0.00
2019-06-08T09:09:39.744Z,0.00
2019-06-08T09:10:39.722Z,0.00
2019-06-08T09:11:41.248Z,0.00
2019-06-08T09:13:12.870Z,0.00
2019-06-08T09:13:39.637Z,0.00
2019-06-08T09:14:41.492Z,0.00
2019-06-08T09:15:39.590Z,0.00
2019-06-08T09:16:39.563Z,0.00
2019-06-08T09:17:39.535Z,0.00
2019-06-08T09:18:39.510Z,0.00
2019-06-08T09:19:39.479Z,0.00
2019-06-08T09:20:39.457Z,0.00
2019-06-08T09:21:39.431Z,0.00
2019-06-08T09:22:52.590Z,0.00
2019-06-08T09:23:39.394Z,0.00
2019-06-08T09:24:39.354Z,0.00
2019-06-08T09:25:40.685Z,0.00
2019-06-08T09:26:39.325Z,0.00
2019-06-08T09:27:39.291Z,0.00
2019-06-08T09:28:39.248Z,0.00
2019-06-08T09:29:39.216Z,0.00
2019-06-08T09:30:39.197Z,0.00
2019-06-08T09:31:39.365Z,0.00
2019-06-08T09:32:39.147Z,0.00
2019-06-08T09:33:39.116Z,0.00
2019-06-08T09:34:39.086Z,5.63
2019-06-08T09:35:39.068Z,5.63
2019-06-08T09:36:40.685Z,0.00
2019-06-08T09:37:39.040Z,0.00
2019-06-08T09:38:38.989Z,5.63
2019-06-08T09:39:39.019Z,5.63
2019-06-08T09:40:38.941Z,5.63
2019-06-08T09:41:38.920Z,5.63
2019-06-08T09:42:38.876Z,5.63
2019-06-08T09:43:39.043Z,11.25
2019-06-08T09:44:38.839Z,11.25
2019-06-08T09:45:38.804Z,11.25
2019-06-08T09:46:38.773Z,11.25
2019-06-08T09:47:38.752Z,11.25
2019-06-08T09:48:38.721Z,16.88
2019-06-08T09:49:38.697Z,16.88
2019-06-08T09:50:38.811Z,16.88
2019-06-08T09:51:38.627Z,22.50
2019-06-08T09:52:41.144Z,22.50
2019-06-08T09:53:41.454Z,28.13
2019-06-08T09:54:38.797Z,28.13
2019-06-08T09:55:41.308Z,33.75
2019-06-08T09:56:38.511Z,33.75
2019-06-08T09:57:38.713Z,39.38
2019-06-08T09:58:39.072Z,39.38
2019-06-08T09:59:38.704Z,45.00
2019-06-08T10:00:38.405Z,50.63
2019-06-08T10:01:38.545Z,56.25
2019-06-08T10:02:38.383Z,56.25
2019-06-08T10:03:39.157Z,61.88
2019-06-08T10:04:38.773Z,67.50
2019-06-08T10:05:38.875Z,67.50
2019-06-08T10:06:40.674Z,73.13
2019-06-08T10:07:39.031Z,78.75
2019-06-08T10:08:38.799Z,84.38
2019-06-08T10:09:38.291Z,90.00
2019-06-08T10:10:38.128Z,101.25
2019-06-08T10:11:38.178Z,106.88
2019-06-08T10:12:41.111Z,112.50
2019-06-08T10:13:39.104Z,123.75
2019-06-08T10:14:38.214Z,129.38
2019-06-08T10:15:38.762Z,135.00
2019-06-08T10:16:38.294Z,140.63
2019-06-08T10:17:38.001Z,146.25
2019-06-08T10:18:38.655Z,151.88
2019-06-08T10:19:37.910Z,157.50
2019-06-08T10:20:38.366Z,163.13
2019-06-08T10:21:38.822Z,168.75
2019-06-08T10:22:37.824Z,174.38
2019-06-08T10:23:38.619Z,180.00
2019-06-08T10:24:38.787Z,196.88
2019-06-08T10:25:38.521Z,202.50
2019-06-08T10:26:37.807Z,208.13
2019-06-08T10:27:38.631Z,202.50
2019-06-08T10:28:38.992Z,208.13
2019-06-08T10:29:38.316Z,213.75
2019-06-08T10:30:38.441Z,219.38
2019-06-08T10:31:43.147Z,225.00
2019-06-08T10:32:38.265Z,225.00
2019-06-08T10:33:40.619Z,225.00
2019-06-08T10:34:38.637Z,230.63
2019-06-08T10:35:38.260Z,236.25
2019-06-08T10:36:38.350Z,247.50
2019-06-08T10:37:38.403Z,258.75
2019-06-08T10:38:38.389Z,264.38
2019-06-08T10:39:37.944Z,275.63
2019-06-08T10:40:38.321Z,281.25
2019-06-08T10:41:38.819Z,281.25
2019-06-08T10:42:39.854Z,286.88
2019-06-08T10:43:38.536Z,292.50
2019-06-08T10:44:38.210Z,303.75
2019-06-08T10:45:37.230Z,309.38
2019-06-08T10:46:40.315Z,315.00
2019-06-08T10:47:37.854Z,320.63
2019-06-08T10:48:37.918Z,326.25
2019-06-08T10:49:38.425Z,337.50
2019-06-08T10:50:37.117Z,337.50
2019-06-08T10:51:40.146Z,337.50
2019-06-08T10:52:39.141Z,343.13
2019-06-08T10:53:48.197Z,348.75
2019-06-08T10:54:37.828Z,354.38
2019-06-08T10:55:37.809Z,354.38
2019-06-08T10:56:38.525Z,371.25
2019-06-08T10:57:37.443Z,348.75
2019-06-08T10:58:36.897Z,320.63
2019-06-08T10:59:40.052Z,315.00
2019-06-08T11:00:38.840Z,315.00
2019-06-08T11:01:38.542Z,315.00
2019-06-08T11:02:37.618Z,315.00
2019-06-08T11:03:38.824Z,315.00
2019-06-08T11:04:38.873Z,331.88
2019-06-08T11:05:36.742Z,343.13
2019-06-08T11:06:39.788Z,399.38
2019-06-08T11:07:38.064Z,399.38
2019-06-08T11:08:38.870Z,461.25
2019-06-08T11:09:36.670Z,433.13
2019-06-08T11:10:37.353Z,438.75
2019-06-08T11:11:38.306Z,455.63
2019-06-08T11:12:37.716Z,343.13
2019-06-08T11:13:36.542Z,360.00
2019-06-08T11:14:38.218Z,354.38
2019-06-08T11:15:37.825Z,382.50
2019-06-08T11:16:38.516Z,421.88
2019-06-08T11:17:37.891Z,388.13
2019-06-08T11:18:36.413Z,444.38
2019-06-08T11:19:37.698Z,421.88
2019-06-08T11:20:38.205Z,393.75
2019-06-08T11:21:38.491Z,427.50
2019-06-08T11:22:36.363Z,371.25
2019-06-08T11:23:38.475Z,298.13
2019-06-08T11:24:38.625Z,292.50
2019-06-08T11:25:37.659Z,298.13
2019-06-08T11:26:39.938Z,303.75
2019-06-08T11:27:38.623Z,309.38
2019-06-08T11:28:38.187Z,354.38
2019-06-08T11:29:38.401Z,354.38
2019-06-08T11:30:38.164Z,343.13
2019-06-08T11:31:39.042Z,343.13
2019-06-08T11:32:38.176Z,331.88
2019-06-08T11:33:38.766Z,337.50
2019-06-08T11:34:37.651Z,360.00
2019-06-08T11:35:38.227Z,393.75
2019-06-08T11:36:36.007Z,652.50
2019-06-08T11:37:38.707Z,472.50
2019-06-08T11:38:38.127Z,466.88
2019-06-08T11:39:38.038Z,579.38
2019-06-08T11:40:37.880Z,556.88
2019-06-08T11:41:35.897Z,438.75
2019-06-08T11:42:38.634Z,433.13
2019-06-08T11:43:38.015Z,461.25
2019-06-08T11:44:35.831Z,455.63
2019-06-08T11:45:37.922Z,495.00
2019-06-08T11:46:38.140Z,489.38
2019-06-08T11:47:38.942Z,585.00
2019-06-08T11:48:39.211Z,534.38
2019-06-08T11:49:35.722Z,506.25
2019-06-08T11:50:38.453Z,506.25
2019-06-08T11:51:37.845Z,517.50
2019-06-08T11:52:38.077Z,523.13
2019-06-08T11:53:38.294Z,545.63
2019-06-08T11:54:38.104Z,568.13
2019-06-08T11:55:35.582Z,933.75
2019-06-08T11:56:39.963Z,658.13
2019-06-08T11:57:37.326Z,618.75
2019-06-08T11:58:35.517Z,680.63
2019-06-08T11:59:37.432Z,658.13
2019-06-08T12:00:37.818Z,652.50
2019-06-08T12:01:35.448Z,793.13
2019-06-08T12:02:35.418Z,1035.00
2019-06-08T12:03:35.401Z,978.75
2019-06-08T12:04:35.388Z,911.25
2019-06-08T12:05:35.365Z,776.25
2019-06-08T12:06:37.528Z,697.50
2019-06-08T12:07:35.332Z,894.38
2019-06-08T12:08:35.285Z,1012.50
2019-06-08T12:09:35.285Z,950.63
2019-06-08T12:10:35.262Z,1023.75
2019-06-08T12:11:35.246Z,1018.13
2019-06-08T12:12:35.222Z,843.75
2019-06-08T12:13:35.200Z,984.38
2019-06-08T12:14:37.681Z,1040.63
2019-06-08T12:15:35.174Z,691.88
2019-06-08T12:16:35.156Z,646.88
2019-06-08T12:17:35.128Z,607.50
2019-06-08T12:18:35.121Z,618.75
2019-06-08T12:19:37.552Z,607.50
2019-06-08T12:20:37.583Z,590.63
2019-06-08T12:21:35.052Z,590.63
2019-06-08T12:22:35.020Z,641.25
2019-06-08T12:23:35.021Z,590.63
2019-06-08T12:24:42.156Z,573.75
2019-06-08T12:25:37.696Z,579.38
2019-06-08T12:26:34.952Z,613.13
2019-06-08T12:27:37.294Z,630.00
2019-06-08T12:28:34.915Z,596.25
2019-06-08T12:29:34.896Z,601.88
2019-06-08T12:30:34.876Z,607.50
2019-06-08T12:31:34.854Z,697.50
2019-06-08T12:32:34.833Z,697.50
2019-06-08T12:33:34.831Z,703.13
2019-06-08T12:34:34.791Z,821.25
2019-06-08T12:35:34.766Z,928.13
2019-06-08T12:36:34.731Z,877.50
2019-06-08T12:37:34.736Z,939.38
2019-06-08T12:38:34.817Z,1006.88
2019-06-08T12:39:34.686Z,720.00
2019-06-08T12:40:34.674Z,787.50
2019-06-08T12:41:34.653Z,883.13
2019-06-08T12:42:34.629Z,916.88
2019-06-08T12:43:34.593Z,911.25
2019-06-08T12:44:34.566Z,883.13
2019-06-08T12:45:34.547Z,950.63
2019-06-08T12:46:34.554Z,1147.50
2019-06-08T12:47:34.536Z,888.75
2019-06-08T12:48:34.519Z,871.88
2019-06-08T12:49:34.493Z,916.88
2019-06-08T12:50:34.475Z,928.13
2019-06-08T12:51:34.436Z,1001.25
2019-06-08T12:52:34.417Z,1068.75
2019-06-08T12:53:34.420Z,1085.63
2019-06-08T12:54:34.395Z,984.38
2019-06-08T12:55:34.379Z,725.63
2019-06-08T12:56:34.358Z,781.88
2019-06-08T12:57:34.344Z,770.63
2019-06-08T12:58:34.321Z,877.50
2019-06-08T12:59:34.306Z,939.38
2019-06-08T13:00:34.289Z,950.63
2019-06-08T13:01:34.272Z,995.63
2019-06-08T13:02:34.256Z,1074.38
2019-06-08T13:03:34.232Z,1186.88
2019-06-08T13:04:34.218Z,1378.13
2019-06-08T13:05:34.188Z,1226.25